createdAt,value
2023-03-26T00:00:00.569Z,28.03
2023-03-26T00:02:30.527Z,25.97
2023-03-26T00:05:00.076Z,32.37
2023-03-26T00:07:32.999Z,32.07
2023-03-26T00:10:02.139Z,29.47
2023-03-26T00:12:31.885Z,29.47
2023-03-26T00:15:03.776Z,28.17
2023-03-26T00:17:32.611Z,31.53
2023-03-26T00:23:03.150Z,31.60
2023-03-26T00:25:32.762Z,27.50
2023-03-26T00:28:01.860Z,34.97
2023-03-26T00:30:30.744Z,32.43
2023-03-26T00:32:59.198Z,29.13
2023-03-26T00:35:27.548Z,33.73
2023-03-26T00:37:56.288Z,28.77
2023-03-26T00:40:25.038Z,33.67
2023-03-26T00:42:53.388Z,35.63
2023-03-26T00:45:22.494Z,29.53
2023-03-26T00:47:51.099Z,30.60
2023-03-26T00:50:20.125Z,27.00
2023-03-26T00:52:48.772Z,28.43
2023-03-26T00:55:24.084Z,29.73
2023-03-26T00:57:55.884Z,29.47
2023-03-26T01:00:32.381Z,30.53
2023-03-26T01:03:05.178Z,34.30
2023-03-26T01:05:37.289Z,34.17
2023-03-26T01:08:31.112Z,38.90
2023-03-26T01:11:05.533Z,39.23
2023-03-26T01:13:38.553Z,32.93
2023-03-26T01:16:20.581Z,32.40
2023-03-26T01:18:50.744Z,34.93
2023-03-26T01:21:23.180Z,30.63
2023-03-26T01:24:03.248Z,27.60
2023-03-26T01:26:46.864Z,31.60
2023-03-26T01:29:44.345Z,26.57
2023-03-26T01:32:34.399Z,35.33
2023-03-26T01:35:20.562Z,28.63
2023-03-26T01:38:16.070Z,30.57
2023-03-26T01:40:47.349Z,29.47
2023-03-26T01:43:39.743Z,28.97
2023-03-26T01:46:11.304Z,27.73
2023-03-26T01:48:42.924Z,28.90
2023-03-26T01:51:12.483Z,26.83
2023-03-26T01:53:45.733Z,29.33
2023-03-26T01:56:35.926Z,28.13
2023-03-26T01:59:39.005Z,27.73
2023-03-26T02:02:28.224Z,22.80
2023-03-26T02:05:23.540Z,24.63
2023-03-26T02:08:12.510Z,30.73
2023-03-26T02:10:46.352Z,22.57
2023-03-26T02:13:18.871Z,29.37
2023-03-26T02:16:02.603Z,26.80
2023-03-26T02:18:41.241Z,28.60
2023-03-26T02:21:20.655Z,24.33
2023-03-26T02:24:14.170Z,28.27
2023-03-26T02:26:43.557Z,24.17
2023-03-26T02:29:12.727Z,24.37
2023-03-26T02:31:41.166Z,26.47
2023-03-26T02:34:09.521Z,24.27
2023-03-26T02:36:38.149Z,30.70
2023-03-26T02:39:06.713Z,26.97
2023-03-26T02:41:36.247Z,27.77
2023-03-26T02:44:06.357Z,24.77
2023-03-26T02:46:34.873Z,26.43
2023-03-26T02:49:03.018Z,30.60
2023-03-26T02:51:35.156Z,28.97
2023-03-26T02:54:04.110Z,26.13
2023-03-26T02:56:33.270Z,29.43
2023-03-26T02:59:01.361Z,27.33
2023-03-26T03:01:36.675Z,25.37
2023-03-26T03:04:05.255Z,26.80
2023-03-26T03:06:38.798Z,25.50
2023-03-26T03:09:09.056Z,26.07
2023-03-26T03:11:41.519Z,28.03
2023-03-26T03:14:09.968Z,23.60
2023-03-26T03:16:40.367Z,23.97
2023-03-26T03:19:08.560Z,28.50
2023-03-26T03:21:39.980Z,26.03
2023-03-26T03:24:10.460Z,22.77
2023-03-26T03:26:39.481Z,25.00
2023-03-26T03:29:10.040Z,24.10
2023-03-26T03:31:38.820Z,19.20
2023-03-26T03:34:07.021Z,25.57
2023-03-26T03:36:38.800Z,23.23
2023-03-26T03:39:07.035Z,25.87
2023-03-26T03:41:37.840Z,25.93
2023-03-26T03:44:06.659Z,25.87
2023-03-26T03:46:38.270Z,26.83
2023-03-26T03:49:07.184Z,26.53
2023-03-26T03:51:35.698Z,18.60
2023-03-26T03:54:04.742Z,18.37
2023-03-26T03:56:53.088Z,16.50
2023-03-26T03:59:21.776Z,20.90
2023-03-26T04:01:51.247Z,18.73
2023-03-26T04:04:21.868Z,18.20
2023-03-26T04:06:53.061Z,19.73
2023-03-26T04:09:21.614Z,16.60
2023-03-26T04:11:54.113Z,17.60
2023-03-26T04:14:22.831Z,17.03
2023-03-26T04:16:51.330Z,15.63
2023-03-26T04:19:23.876Z,15.87
2023-03-26T04:21:52.608Z,19.10
2023-03-26T04:24:22.873Z,15.23
2023-03-26T04:26:59.993Z,19.23
2023-03-26T04:29:30.980Z,20.53
2023-03-26T04:31:59.421Z,16.40
2023-03-26T04:34:30.371Z,16.13
2023-03-26T04:36:59.085Z,16.93
2023-03-26T04:39:29.505Z,15.03
2023-03-26T04:41:58.408Z,18.30
2023-03-26T04:44:30.686Z,14.40
2023-03-26T04:46:59.315Z,14.80
2023-03-26T04:49:27.439Z,15.57
2023-03-26T04:51:56.117Z,13.93
2023-03-26T04:54:25.322Z,15.53
2023-03-26T04:57:01.297Z,14.17
2023-03-26T04:59:37.684Z,13.53
2023-03-26T05:02:07.333Z,14.80
2023-03-26T05:04:40.161Z,13.30
2023-03-26T05:07:09.934Z,13.03
2023-03-26T05:09:40.450Z,12.97
2023-03-26T05:12:08.817Z,12.40
2023-03-26T05:14:37.470Z,12.93
2023-03-26T05:17:11.758Z,13.10
2023-03-26T05:19:43.081Z,12.30
2023-03-26T05:22:11.756Z,10.73
2023-03-26T05:24:41.094Z,12.50
2023-03-26T05:27:15.300Z,13.07
2023-03-26T05:29:48.170Z,12.27
2023-03-26T05:32:17.107Z,16.03
2023-03-26T05:34:45.161Z,18.83
2023-03-26T05:37:15.120Z,11.97
2023-03-26T05:39:44.354Z,12.50
2023-03-26T05:42:12.514Z,14.17
2023-03-26T05:44:41.552Z,15.00
2023-03-26T05:47:12.779Z,11.10
2023-03-26T05:49:42.096Z,10.13
2023-03-26T05:52:10.748Z,8.37
2023-03-26T05:54:39.134Z,11.43
2023-03-26T05:57:07.577Z,9.13
2023-03-26T05:59:37.039Z,9.33
2023-03-26T06:02:07.999Z,8.70
2023-03-26T06:04:36.273Z,9.60
2023-03-26T06:07:11.823Z,8.40
2023-03-26T06:09:41.224Z,11.50
2023-03-26T06:12:10.806Z,9.53
2023-03-26T06:14:39.213Z,9.90
2023-03-26T06:17:08.074Z,10.70
2023-03-26T06:19:37.089Z,10.23
2023-03-26T06:22:06.111Z,9.20
2023-03-26T06:24:35.350Z,7.63
2023-03-26T06:27:03.403Z,6.33
2023-03-26T06:29:31.841Z,11.60
2023-03-26T06:32:09.165Z,7.47
2023-03-26T06:34:45.062Z,12.73
2023-03-26T06:37:13.207Z,9.47
2023-03-26T06:39:41.505Z,7.77
2023-03-26T06:42:09.451Z,7.00
2023-03-26T06:44:37.365Z,7.47
2023-03-26T06:47:06.006Z,7.57
2023-03-26T06:49:34.838Z,8.43
2023-03-26T06:52:03.373Z,8.43
2023-03-26T06:54:32.287Z,9.83
2023-03-26T06:57:00.368Z,8.23
2023-03-26T06:59:30.498Z,10.20
2023-03-26T07:01:58.912Z,7.83
2023-03-26T07:04:27.007Z,10.33
2023-03-26T07:06:56.517Z,8.37
2023-03-26T07:09:26.513Z,10.77
2023-03-26T07:11:56.855Z,7.93
2023-03-26T07:14:26.079Z,8.57
2023-03-26T07:16:54.260Z,7.77
2023-03-26T07:19:22.871Z,12.60
2023-03-26T07:21:51.992Z,10.40
2023-03-26T07:24:21.334Z,11.07
2023-03-26T07:27:00.912Z,10.13
2023-03-26T07:29:46.681Z,11.57
2023-03-26T07:32:33.973Z,10.53
2023-03-26T07:35:08.776Z,11.53
2023-03-26T07:37:51.410Z,11.73
2023-03-26T07:40:56.859Z,11.67
2023-03-26T07:43:34.009Z,11.43
2023-03-26T07:46:02.858Z,9.87
2023-03-26T07:48:45.017Z,13.90
2023-03-26T07:51:15.930Z,8.43
2023-03-26T07:53:51.107Z,9.00
2023-03-26T07:56:42.755Z,10.67
2023-03-26T07:59:19.149Z,8.40
2023-03-26T08:02:00.464Z,10.73
2023-03-26T08:04:57.260Z,9.90
2023-03-26T08:08:11.389Z,8.20
2023-03-26T08:10:45.358Z,10.93
2023-03-26T08:13:36.675Z,10.77
2023-03-26T08:16:17.141Z,12.00
2023-03-26T08:18:55.956Z,7.37
2023-03-26T08:21:28.152Z,10.10
2023-03-26T08:24:22.598Z,10.17
2023-03-26T08:26:59.449Z,8.30
2023-03-26T08:29:39.777Z,13.23
2023-03-26T08:32:19.162Z,11.27
2023-03-26T08:34:47.553Z,9.47
2023-03-26T08:37:15.844Z,12.47
2023-03-26T08:39:44.332Z,11.07
2023-03-26T08:42:49.614Z,9.73
2023-03-26T08:45:27.482Z,9.53
2023-03-26T08:48:23.063Z,11.43
2023-03-26T08:51:11.116Z,10.67
2023-03-26T08:53:58.535Z,11.30
2023-03-26T08:56:51.212Z,12.27
2023-03-26T08:59:43.369Z,19.67
2023-03-26T09:02:39.920Z,11.93
2023-03-26T09:05:39.654Z,11.43
2023-03-26T09:08:54.212Z,13.40
2023-03-26T09:11:51.803Z,12.47
2023-03-26T09:14:46.499Z,10.60
2023-03-26T09:17:31.524Z,11.53
2023-03-26T09:20:02.842Z,18.40
2023-03-26T09:22:55.728Z,11.23
2023-03-26T09:25:59.808Z,20.00
2023-03-26T09:29:13.002Z,13.10
2023-03-26T09:31:58.387Z,11.50
2023-03-26T09:34:30.844Z,10.87
2023-03-26T09:37:22.384Z,49.63
2023-03-26T09:40:23.009Z,10.63
2023-03-26T09:43:02.280Z,17.43
2023-03-26T09:45:40.395Z,12.23
2023-03-26T09:48:26.303Z,18.00
2023-03-26T09:51:27.368Z,17.87
2023-03-26T09:54:26.704Z,12.67
2023-03-26T09:57:21.258Z,15.00
2023-03-26T10:00:13.440Z,13.20
2023-03-26T10:03:13.328Z,12.07
2023-03-26T10:06:12.115Z,15.37
2023-03-26T10:09:14.146Z,15.27
2023-03-26T10:11:51.475Z,13.90
2023-03-26T10:14:53.785Z,18.10
2023-03-26T10:17:41.747Z,16.50
2023-03-26T10:20:32.650Z,18.47
2023-03-26T10:23:08.427Z,18.77
2023-03-26T10:25:48.307Z,18.50
2023-03-26T10:28:54.022Z,16.07
2023-03-26T10:32:04.015Z,19.97
2023-03-26T10:34:38.680Z,20.43
2023-03-26T10:37:41.412Z,21.33
2023-03-26T10:40:28.348Z,21.57
2023-03-26T10:43:02.607Z,17.07
2023-03-26T10:45:37.616Z,16.90
2023-03-26T10:48:17.346Z,20.60
2023-03-26T10:51:15.018Z,21.23
2023-03-26T10:53:55.725Z,21.40
2023-03-26T10:56:47.081Z,22.63
2023-03-26T10:59:16.582Z,22.70
2023-03-26T11:02:04.190Z,26.90
2023-03-26T11:04:59.814Z,20.00
2023-03-26T11:07:54.480Z,17.80
2023-03-26T11:10:27.334Z,22.27
2023-03-26T11:13:11.921Z,20.70
2023-03-26T11:16:06.929Z,15.70
2023-03-26T11:18:57.448Z,19.83
2023-03-26T11:21:41.371Z,19.50
2023-03-26T11:24:54.661Z,19.63
2023-03-26T11:27:44.540Z,17.67
2023-03-26T11:30:25.553Z,16.03
2023-03-26T11:33:24.706Z,15.43
2023-03-26T11:35:56.695Z,14.10
2023-03-26T11:38:47.085Z,12.20
2023-03-26T11:41:22.799Z,15.43
2023-03-26T11:44:03.271Z,13.07
2023-03-26T11:46:33.760Z,17.63
2023-03-26T11:49:07.533Z,16.50
2023-03-26T11:51:49.364Z,11.37
2023-03-26T11:54:18.350Z,18.83
2023-03-26T11:57:05.120Z,12.70
2023-03-26T11:59:57.083Z,14.33
2023-03-26T12:02:29.821Z,14.20
2023-03-26T12:05:13.508Z,11.33
2023-03-26T12:07:52.765Z,15.17
2023-03-26T12:10:24.838Z,12.07
2023-03-26T12:12:57.182Z,12.80
2023-03-26T12:15:25.966Z,12.80
2023-03-26T12:17:59.652Z,12.63
2023-03-26T12:20:34.174Z,13.00
2023-03-26T12:23:05.401Z,12.73
2023-03-26T12:25:39.697Z,14.97
2023-03-26T12:28:16.471Z,13.97
2023-03-26T12:31:03.236Z,13.47
2023-03-26T12:33:39.378Z,14.00
2023-03-26T12:36:20.812Z,13.93
2023-03-26T12:39:16.647Z,13.73
2023-03-26T12:44:42.665Z,17.80
2023-03-26T12:44:50.182Z,15.37
2023-03-26T12:47:58.147Z,13.23
2023-03-26T12:50:18.140Z,13.93
2023-03-26T12:53:15.223Z,17.10
2023-03-26T12:55:53.687Z,12.47
2023-03-26T12:58:32.838Z,10.57
2023-03-26T13:01:19.443Z,10.67
2023-03-26T13:04:26.530Z,11.07
2023-03-26T13:07:01.936Z,11.07
2023-03-26T13:09:36.980Z,13.70
2023-03-26T13:12:48.819Z,16.17
2023-03-26T13:15:29.232Z,10.33
2023-03-26T13:18:09.645Z,13.33
2023-03-26T13:20:52.063Z,16.60
2023-03-26T13:23:27.729Z,13.93
2023-03-26T13:26:08.658Z,10.57
2023-03-26T13:28:42.785Z,11.33
2023-03-26T13:31:42.363Z,17.47
2023-03-26T13:34:31.479Z,16.67
2023-03-26T13:37:20.940Z,12.83
2023-03-26T13:40:15.887Z,10.73
2023-03-26T13:43:22.125Z,11.23
2023-03-26T13:46:06.792Z,10.07
2023-03-26T13:48:53.785Z,8.97
2023-03-26T13:51:48.443Z,11.97
2023-03-26T13:54:51.597Z,12.67
2023-03-26T13:57:42.243Z,10.83
2023-03-26T14:00:22.241Z,13.47
2023-03-26T14:02:58.190Z,17.50
2023-03-26T14:05:40.258Z,10.60
2023-03-26T14:08:25.373Z,12.67
2023-03-26T14:11:07.246Z,14.73
2023-03-26T14:13:56.887Z,10.03
2023-03-26T14:16:39.454Z,13.67
2023-03-26T14:19:25.342Z,11.20
2023-03-26T14:22:04.070Z,11.50
2023-03-26T14:24:46.584Z,11.87
2023-03-26T14:27:25.018Z,12.70
2023-03-26T14:30:11.880Z,12.47
2023-03-26T14:32:49.742Z,11.30
2023-03-26T14:35:56.278Z,16.47
2023-03-26T14:38:33.389Z,34.47
2023-03-26T14:41:30.267Z,15.10
2023-03-26T14:44:18.051Z,16.10
2023-03-26T14:47:16.834Z,13.33
2023-03-26T14:50:06.954Z,16.03
2023-03-26T14:52:52.510Z,12.30
2023-03-26T14:56:19.128Z,19.90
2023-03-26T14:59:31.204Z,17.17
2023-03-26T15:02:18.040Z,16.40
2023-03-26T15:05:18.513Z,13.33
2023-03-26T15:08:23.414Z,12.50
2023-03-26T15:11:23.069Z,15.50
2023-03-26T15:14:10.891Z,16.97
2023-03-26T15:16:51.794Z,15.93
2023-03-26T15:19:41.996Z,15.30
2023-03-26T15:22:47.811Z,11.77
2023-03-26T15:25:31.219Z,11.57
2023-03-26T15:28:08.739Z,14.07
2023-03-26T15:31:10.288Z,16.03
2023-03-26T15:34:03.487Z,17.73
2023-03-26T15:36:59.191Z,16.40
2023-03-26T15:40:07.909Z,14.33
2023-03-26T15:42:52.508Z,12.07
2023-03-26T15:46:10.323Z,14.80
2023-03-26T15:49:04.404Z,15.50
2023-03-26T15:52:17.914Z,14.63
2023-03-26T15:55:14.804Z,16.33
2023-03-26T15:58:04.302Z,17.23
2023-03-26T16:00:58.009Z,25.20
2023-03-26T16:03:49.582Z,27.13
2023-03-26T16:06:31.381Z,36.87
2023-03-26T16:09:25.741Z,30.63
2023-03-26T16:11:59.030Z,29.37
2023-03-26T16:15:15.180Z,21.53
2023-03-26T16:18:12.798Z,24.03
2023-03-26T16:20:51.198Z,22.13
2023-03-26T16:23:47.925Z,20.10
2023-03-26T16:26:38.261Z,19.20
2023-03-26T16:29:22.937Z,21.03
2023-03-26T16:32:16.138Z,20.00
2023-03-26T16:35:14.350Z,23.10
2023-03-26T16:37:46.430Z,23.13
2023-03-26T16:40:24.029Z,31.57
2023-03-26T16:42:58.051Z,32.13
2023-03-26T16:45:36.562Z,29.67
2023-03-26T16:48:37.533Z,28.90
2023-03-26T16:51:18.902Z,30.73
2023-03-26T16:53:59.036Z,29.63
2023-03-26T16:57:03.295Z,26.00
2023-03-26T17:00:08.321Z,28.67
2023-03-26T17:03:18.746Z,27.30
2023-03-26T17:05:58.721Z,27.30
2023-03-26T17:08:39.247Z,25.97
2023-03-26T17:11:09.984Z,30.60
2023-03-26T17:14:12.891Z,29.43
2023-03-26T17:16:50.731Z,34.87
2023-03-26T17:19:34.130Z,28.00
2023-03-26T17:22:30.753Z,26.77
2023-03-26T17:25:05.516Z,22.27
2023-03-26T17:27:51.927Z,22.20
2023-03-26T17:31:08.587Z,24.70
2023-03-26T17:33:45.320Z,20.80
2023-03-26T17:36:17.065Z,30.67
2023-03-26T17:38:48.238Z,27.50
2023-03-26T17:41:55.756Z,25.67
2023-03-26T17:44:37.955Z,21.10
2023-03-26T17:47:14.339Z,22.07
2023-03-26T17:49:44.041Z,27.43
2023-03-26T17:52:34.707Z,24.87
2023-03-26T17:55:03.244Z,25.00
2023-03-26T17:57:46.773Z,22.70
2023-03-26T18:00:18.985Z,19.33
2023-03-26T18:03:17.384Z,20.03
2023-03-26T18:05:46.391Z,21.47
2023-03-26T18:08:41.735Z,22.03
2023-03-26T18:11:38.083Z,24.40
2023-03-26T18:14:38.815Z,53.40
2023-03-26T18:17:07.218Z,31.63
2023-03-26T18:19:50.283Z,28.70
2023-03-26T18:22:28.069Z,24.87
2023-03-26T18:25:00.034Z,22.93
2023-03-26T18:27:39.919Z,25.37
2023-03-26T18:30:23.113Z,21.73
2023-03-26T18:33:12.857Z,28.17
2023-03-26T18:35:52.457Z,24.60
2023-03-26T18:38:37.166Z,23.23
2023-03-26T18:41:10.341Z,52.37
2023-03-26T18:43:44.483Z,30.30
2023-03-26T18:46:17.422Z,24.37
2023-03-26T18:48:47.848Z,22.50
2023-03-26T18:51:23.341Z,22.83
2023-03-26T18:53:55.750Z,22.50
2023-03-26T18:56:38.266Z,21.30
2023-03-26T18:59:31.281Z,19.53
2023-03-26T19:02:01.825Z,20.77
2023-03-26T19:04:35.382Z,23.33
2023-03-26T19:07:07.249Z,24.50
2023-03-26T19:09:38.480Z,20.90
2023-03-26T19:12:18.420Z,21.50
2023-03-26T19:15:13.156Z,23.33
2023-03-26T19:17:57.179Z,24.00
2023-03-26T19:20:30.848Z,20.13
2023-03-26T19:22:59.297Z,20.80
2023-03-26T19:25:39.098Z,23.87
2023-03-26T19:28:16.530Z,20.53
2023-03-26T19:30:46.537Z,22.13
2023-03-26T19:33:19.073Z,23.37
2023-03-26T19:36:15.416Z,24.93
2023-03-26T19:38:59.222Z,27.50
2023-03-26T19:41:44.432Z,27.10
2023-03-26T19:44:29.562Z,30.33
2023-03-26T19:47:31.893Z,26.90
2023-03-26T19:50:30.242Z,26.63
2023-03-26T19:53:16.842Z,30.40
2023-03-26T19:55:55.991Z,28.43
2023-03-26T19:58:27.704Z,28.27
2023-03-26T20:00:56.839Z,26.77
2023-03-26T20:03:43.562Z,24.80
2023-03-26T20:06:42.424Z,25.07
2023-03-26T20:09:13.664Z,23.30
2023-03-26T20:11:42.637Z,22.80
2023-03-26T20:14:26.656Z,18.90
2023-03-26T20:19:42.116Z,18.67
2023-03-26T20:22:24.303Z,16.73
2023-03-26T20:24:53.239Z,16.50
2023-03-26T20:27:24.145Z,16.47
2023-03-26T20:29:52.390Z,13.20
2023-03-26T20:32:26.482Z,14.23
2023-03-26T20:34:59.438Z,13.43
2023-03-26T20:37:28.075Z,12.67
2023-03-26T20:39:59.978Z,13.90
2023-03-26T20:42:28.562Z,15.70
2023-03-26T20:44:57.410Z,13.13
2023-03-26T20:47:26.939Z,11.60
2023-03-26T20:49:56.639Z,24.27
2023-03-26T20:52:26.032Z,20.07
2023-03-26T20:54:59.477Z,14.00
2023-03-26T20:57:28.502Z,12.57
2023-03-26T20:59:58.426Z,11.67
2023-03-26T21:02:28.287Z,12.23
2023-03-26T21:04:57.986Z,11.40
2023-03-26T21:07:29.368Z,10.40
2023-03-26T21:09:59.385Z,11.87
2023-03-26T21:12:31.370Z,12.90
2023-03-26T21:15:07.231Z,12.53
2023-03-26T21:17:39.595Z,11.00
2023-03-26T21:20:18.134Z,12.67
2023-03-26T21:23:04.232Z,15.27
2023-03-26T21:25:45.138Z,13.73
2023-03-26T21:28:43.024Z,12.57
2023-03-26T21:31:14.783Z,13.80
2023-03-26T21:33:44.174Z,11.83
2023-03-26T21:36:13.804Z,14.33
2023-03-26T21:38:45.452Z,11.93
2023-03-26T21:41:39.011Z,10.93
2023-03-26T21:44:07.521Z,12.20
2023-03-26T21:46:36.217Z,12.17
2023-03-26T21:49:06.479Z,12.60
2023-03-26T21:51:37.521Z,13.57
2023-03-26T21:54:19.988Z,12.60
2023-03-26T21:57:10.242Z,14.57
2023-03-26T22:00:18.532Z,13.87
2023-03-26T22:03:08.731Z,12.70
2023-03-26T22:05:55.338Z,15.10
2023-03-26T22:08:32.008Z,18.37
2023-03-26T22:11:03.773Z,16.30
2023-03-26T22:13:33.060Z,17.07
2023-03-26T22:16:01.631Z,13.60
2023-03-26T22:18:33.342Z,12.53
2023-03-26T22:21:04.200Z,15.53
2023-03-26T22:23:36.603Z,14.63
2023-03-26T22:26:06.555Z,13.50
2023-03-26T22:28:36.857Z,11.53
2023-03-26T22:31:09.178Z,14.13
2023-03-26T22:33:43.192Z,13.33
2023-03-26T22:36:22.466Z,15.37
2023-03-26T22:38:54.267Z,14.47
2023-03-26T22:41:23.513Z,14.70
2023-03-26T22:43:56.863Z,11.43
2023-03-26T22:46:26.821Z,13.40
2023-03-26T22:48:56.230Z,13.33
2023-03-26T22:51:28.765Z,12.47
2023-03-26T22:53:58.679Z,13.13
2023-03-26T22:56:27.863Z,14.67
2023-03-26T22:58:57.354Z,21.73
2023-03-26T23:01:26.540Z,16.77
2023-03-26T23:03:55.335Z,15.87
2023-03-26T23:06:23.518Z,20.70
2023-03-26T23:08:52.905Z,16.47
2023-03-26T23:11:22.706Z,14.93
2023-03-26T23:13:52.023Z,18.97
2023-03-26T23:16:24.166Z,13.97
2023-03-26T23:18:59.246Z,12.40
2023-03-26T23:21:29.749Z,13.77
2023-03-26T23:23:58.877Z,13.70
2023-03-26T23:26:34.998Z,17.27
2023-03-26T23:29:06.686Z,14.23
2023-03-26T23:31:35.836Z,14.40
2023-03-26T23:34:04.402Z,11.90
2023-03-26T23:36:32.601Z,13.77
2023-03-26T23:39:02.032Z,13.23
2023-03-26T23:41:30.390Z,13.87
2023-03-26T23:44:03.737Z,13.90
2023-03-26T23:46:35.237Z,19.27
2023-03-26T23:49:04.677Z,19.90
2023-03-26T23:51:36.541Z,25.00
2023-03-26T23:54:09.916Z,29.73
2023-03-26T23:56:41.639Z,26.73
2023-03-26T23:59:14.025Z,26.80
